Time;durP1;ratioP1;P1;durP2;ratioP2;P2;SDS_P1;SDS_P2;PMS_P1;PMS_P2;Temp;Humidity;BMP_temperature;BMP_pressure;BME280_temperature;BME280_humidity;BME280_pressure;Samples;Min_cycle;Max_cycle;Signal;HPM_P1;HPM_P2
2022/01/28 00:01:34;;;;;;;10.67;1.77;;;;;;;3.45;100.00;102954.44;5126867;27;20419;-64
2022/01/28 00:04:11;;;;;;;9.30;1.77;;;;;;;3.42;100.00;102957.59;5112549;28;20463;-64
2022/01/28 00:06:36;;;;;;;8.73;2.10;;;;;;;3.38;100.00;102963.22;5124036;27;20375;-64
2022/01/28 00:09:02;;;;;;;8.50;1.97;;;;;;;3.36;100.00;102975.84;5133157;27;20019;-64
2022/01/28 00:11:28;;;;;;;13.60;1.90;;;;;;;3.33;100.00;102982.34;5133212;27;20019;-64
2022/01/28 00:14:02;;;;;;;8.40;2.00;;;;;;;3.29;100.00;102981.16;5133128;27;20031;-65
2022/01/28 00:17:01;;;;;;;8.13;1.53;;;;;;;3.27;100.00;102986.91;5133085;27;20468;-64
2022/01/28 00:38:11;;;;;;;8.27;1.60;;;;;;;2.83;100.00;102996.44;5132721;27;20073;-64
2022/01/28 00:40:37;;;;;;;8.57;1.90;;;;;;;2.79;100.00;102985.75;5132742;27;20478;-64
2022/01/28 00:43:04;;;;;;;12.30;1.73;;;;;;;2.75;100.00;102985.41;5132726;27;20045;-64
2022/01/28 00:45:30;;;;;;;14.33;2.20;;;;;;;2.77;100.00;102988.13;5114375;27;20394;-64
2022/01/28 00:47:55;;;;;;;12.17;2.40;;;;;;;2.73;100.00;102989.50;5121715;27;20037;-64
2022/01/28 00:50:21;;;;;;;8.50;2.17;;;;;;;2.71;100.00;102990.09;5121278;27;20459;-64
2022/01/28 00:52:47;;;;;;;10.93;1.73;;;;;;;2.70;100.00;102983.19;5128858;27;20474;-64
2022/01/28 00:55:12;;;;;;;10.20;1.93;;;;;;;2.68;100.00;102985.56;5125610;27;20054;-64
2022/01/28 00:57:38;;;;;;;10.60;2.00;;;;;;;2.68;100.00;102987.25;5132256;27;20069;-64
2022/01/28 01:00:06;;;;;;;12.53;3.87;;;;;;;2.70;100.00;102990.88;5132377;27;20501;-64
2022/01/28 01:02:31;;;;;;;11.93;1.93;;;;;;;2.70;100.00;102991.75;5132682;27;20451;-64
2022/01/28 01:04:56;;;;;;;10.63;1.77;;;;;;;2.71;100.00;102992.66;5132490;27;20034;-64
2022/01/28 01:07:21;;;;;;;13.63;1.87;;;;;;;2.73;100.00;102993.72;5119878;27;20296;-64
2022/01/28 01:09:48;;;;;;;12.20;2.00;;;;;;;2.74;100.00;102992.94;5132119;27;20023;-64
2022/01/28 01:12:17;;;;;;;11.80;1.90;;;;;;;2.76;100.00;102994.00;5132254;27;20088;-64
2022/01/28 01:14:43;;;;;;;7.90;1.60;;;;;;;2.76;100.00;103000.06;5132234;27;20245;-64
2022/01/28 01:17:24;;;;;;;14.03;2.00;;;;;;;2.78;100.00;103000.19;5131984;27;20039;-64
2022/01/28 01:19:54;;;;;;;9.35;2.30;;;;;;;2.78;100.00;103002.75;5132010;27;20447;-64
2022/01/28 01:22:20;;;;;;;9.37;1.50;;;;;;;2.78;100.00;103002.75;5125368;27;20023;-64
2022/01/28 01:24:52;;;;;;;12.93;2.50;;;;;;;2.78;100.00;103000.19;5131542;27;20012;-64
2022/01/28 01:27:19;;;;;;;9.43;1.90;;;;;;;2.76;100.00;103001.69;5126802;27;20029;-64
2022/01/28 01:29:46;;;;;;;9.37;1.90;;;;;;;2.75;100.00;103002.47;5131768;27;20023;-64
2022/01/28 01:32:15;;;;;;;10.63;2.00;;;;;;;2.75;100.00;103015.25;5118317;27;20082;-64
2022/01/28 01:34:40;;;;;;;14.27;1.90;;;;;;;2.74;100.00;103018.56;5111998;27;20027;-64
2022/01/28 01:37:08;;;;;;;14.50;2.90;;;;;;;2.71;100.00;103019.19;5131350;27;20039;-64
2022/01/28 01:39:35;;;;;;;15.00;2.97;;;;;;;2.70;100.00;103026.72;5131621;27;20019;-64
2022/01/28 01:42:11;;;;;;;8.67;1.63;;;;;;;2.68;100.00;103023.97;5129480;27;20246;-64
2022/01/28 01:52:55;;;;;;;12.87;2.60;;;;;;;2.66;100.00;103047.63;5131122;27;20030;-64
2022/01/28 01:55:21;;;;;;;7.80;1.77;;;;;;;2.62;100.00;103057.56;5131439;27;20023;-63
2022/01/28 01:57:46;;;;;;;10.47;1.40;;;;;;;2.61;100.00;103066.00;5131467;27;20121;-64
2022/01/28 02:00:13;;;;;;;12.23;1.83;;;;;;;2.63;100.00;103068.69;5131161;27;20026;-64
2022/01/28 02:02:38;;;;;;;12.30;1.97;;;;;;;2.60;100.00;103066.75;5123916;27;20104;-64
2022/01/28 02:05:05;;;;;;;8.30;2.00;;;;;;;2.59;100.00;103070.03;5124436;27;20027;-64
2022/01/28 02:07:31;;;;;;;11.83;2.13;;;;;;;2.60;100.00;103077.00;5124122;27;20023;-64
2022/01/28 02:09:56;;;;;;;15.67;2.07;;;;;;;2.59;100.00;103079.41;5131002;27;20034;-64
2022/01/28 02:12:22;;;;;;;13.07;2.30;;;;;;;2.56;100.00;103082.53;5131135;27;20028;-64
2022/01/28 02:14:47;;;;;;;14.27;3.80;;;;;;;2.54;100.00;103081.47;5125006;27;20043;-64
2022/01/28 02:17:13;;;;;;;9.60;1.67;;;;;;;2.52;100.00;103082.97;5130098;27;20106;-64
2022/01/28 02:19:39;;;;;;;8.30;1.97;;;;;;;2.51;100.00;103091.41;5130885;27;20031;-64
2022/01/28 02:22:05;;;;;;;9.07;1.83;;;;;;;2.49;100.00;103088.72;5130543;27;20019;-64
2022/01/28 02:24:40;;;;;;;13.70;2.00;;;;;;;2.52;100.00;103085.53;5130703;27;20019;-64
2022/01/28 02:27:06;;;;;;;10.43;1.93;;;;;;;2.51;100.00;103086.31;5125343;27;20282;-64
2022/01/28 02:29:34;;;;;;;11.40;1.90;;;;;;;2.52;100.00;103093.22;5130523;27;20554;-64
2022/01/28 02:32:03;;;;;;;12.53;2.67;;;;;;;2.54;100.00;103095.97;5130908;27;20076;-64
2022/01/28 02:34:28;;;;;;;8.00;1.53;;;;;;;2.53;100.00;103097.59;5130206;27;20039;-64
2022/01/28 02:36:55;;;;;;;12.10;1.73;;;;;;;2.53;100.00;103095.03;5123487;27;20064;-64
2022/01/28 02:39:21;;;;;;;10.50;2.07;;;;;;;2.54;100.00;103091.72;5130275;27;20111;-64
2022/01/28 02:41:50;;;;;;;11.60;2.03;;;;;;;2.53;100.00;103097.59;5130526;27;20027;-64
2022/01/28 02:49:38;;;;;;;12.13;1.93;;;;;;;2.54;100.00;103107.09;5066153;28;20027;-64
2022/01/28 02:52:04;;;;;;;11.83;2.73;;;;;;;2.51;100.00;103112.81;5051820;28;20033;-64
2022/01/28 02:54:33;;;;;;;9.37;2.00;;;;;;;2.51;100.00;103117.03;5060904;28;20037;-64
2022/01/28 02:57:03;;;;;;;13.17;1.80;;;;;;;2.52;100.00;103123.94;5066290;28;20021;-64
2022/01/28 02:59:29;;;;;;;11.77;1.90;;;;;;;2.51;100.00;103120.50;5066237;28;20052;-64
2022/01/28 03:01:54;;;;;;;11.23;2.20;;;;;;;2.52;100.00;103123.94;5066473;28;20107;-64
2022/01/28 03:05:02;;;;;;;10.00;1.63;;;;;;;2.55;100.00;103123.34;5066604;28;20035;-64
2022/01/28 03:07:07;;;;;;;11.60;1.93;;;;;;;2.55;100.00;103133.59;5061027;28;20063;-64
2022/01/28 03:09:52;;;;;;;16.97;2.67;;;;;;;2.55;100.00;103136.16;5066300;28;20024;-64
2022/01/28 03:12:20;;;;;;;12.67;2.13;;;;;;;2.54;100.00;103131.81;5066324;28;20041;-64
2022/01/28 03:17:50;;;;;;;7.95;1.60;;;;;;;2.55;100.00;103137.06;5066260;28;20074;-64
2022/01/28 03:22:46;;;;;;;11.73;2.37;;;;;;;2.60;100.00;103137.53;5059542;28;20115;-64
2022/01/28 03:25:13;;;;;;;14.47;2.20;;;;;;;2.62;100.00;103131.81;5066730;28;20069;-64
2022/01/28 03:30:05;;;;;;;10.33;2.03;;;;;;;2.68;100.00;103140.88;5129960;28;20038;-64
2022/01/28 03:32:30;;;;;;;8.07;1.97;;;;;;;2.68;100.00;103136.63;5129572;27;20047;-64
2022/01/28 03:34:55;;;;;;;14.23;2.40;;;;;;;2.70;100.00;103139.38;5129859;28;20064;-64
2022/01/28 03:37:22;;;;;;;12.07;2.50;;;;;;;2.71;100.00;103133.50;5129900;28;20023;-64
2022/01/28 03:39:47;;;;;;;14.07;2.20;;;;;;;2.71;100.00;103138.63;5129967;28;20465;-64
2022/01/28 03:42:12;;;;;;;8.97;1.70;;;;;;;2.72;100.00;103140.41;5129877;28;20047;-64
2022/01/28 03:44:38;;;;;;;12.60;1.97;;;;;;;2.72;100.00;103146.44;5129679;28;20027;-64
2022/01/28 03:47:04;;;;;;;14.60;2.13;;;;;;;2.71;100.00;103148.84;5126404;27;20470;-64
2022/01/28 03:49:29;;;;;;;7.63;2.00;;;;;;;2.68;100.00;103151.13;5129750;28;20031;-64
2022/01/28 03:51:55;;;;;;;12.23;2.47;;;;;;;2.67;100.00;103149.28;5129693;28;20041;-63
2022/01/28 03:54:20;;;;;;;14.40;3.07;;;;;;;2.66;100.00;103150.06;5122565;28;20076;-64
2022/01/28 03:56:45;;;;;;;13.47;2.40;;;;;;;2.62;100.00;103136.94;5129405;27;20027;-64
2022/01/28 03:59:11;;;;;;;12.07;2.37;;;;;;;2.62;100.00;103151.41;5126620;27;20031;-64
2022/01/28 04:01:38;;;;;;;11.80;2.33;;;;;;;2.61;100.00;103150.47;5133628;27;20042;-64
2022/01/28 04:12:17;;;;;;;12.97;2.00;;;;;;;2.51;100.00;103169.13;5121777;27;20096;-64
2022/01/28 04:14:58;;;;;;;10.50;2.10;;;;;;;2.50;100.00;103161.31;5107930;27;20027;-64
2022/01/28 04:17:23;;;;;;;8.25;1.88;;;;;;;2.46;100.00;103159.16;5120695;27;20023;-64
2022/01/28 04:19:50;;;;;;;9.30;2.13;;;;;;;2.39;100.00;103158.50;5133239;27;20432;-64
2022/01/28 04:22:15;;;;;;;7.80;2.20;;;;;;;2.37;100.00;103161.69;5119858;27;20018;-64
2022/01/28 04:24:41;;;;;;;9.97;2.07;;;;;;;2.33;100.00;103163.03;5126524;27;20085;-64
2022/01/28 04:27:06;;;;;;;11.47;1.97;;;;;;;2.31;100.00;103158.47;5132531;27;20027;-64
2022/01/28 04:29:31;;;;;;;16.03;2.03;;;;;;;2.26;100.00;103158.00;5126003;27;20462;-64
2022/01/28 04:31:57;;;;;;;10.97;1.93;;;;;;;2.23;100.00;103167.94;5133402;27;20119;-64
2022/01/28 04:34:23;;;;;;;13.07;2.43;;;;;;;2.18;100.00;103164.88;5132904;27;20137;-64
2022/01/28 04:39:26;;;;;;;8.77;2.20;;;;;;;2.20;100.00;103180.41;5130887;27;20364;-64
2022/01/28 04:44:23;;;;;;;11.80;2.37;;;;;;;2.19;100.00;103173.47;5133113;27;20107;-64
2022/01/28 04:47:05;;;;;;;8.93;1.87;;;;;;;2.14;100.00;103171.34;5132592;27;20023;-64
2022/01/28 04:49:45;;;;;;;11.43;1.73;;;;;;;2.11;100.00;103176.13;5121457;27;20056;-63
2022/01/28 05:26:21;;;;;;;13.63;3.10;;;;;;;2.03;100.00;103223.06;5067106;28;20059;-64
2022/01/28 05:28:35;;;;;;;10.10;3.30;;;;;;;2.03;100.00;103217.94;5065950;28;20070;-64
2022/01/28 05:31:00;;;;;;;10.47;2.70;;;;;;;2.04;100.00;103230.88;5067829;28;20110;-64
2022/01/28 05:33:25;;;;;;;13.30;2.87;;;;;;;2.06;100.00;103222.44;5067592;28;20579;-64
2022/01/28 05:35:51;;;;;;;13.70;2.87;;;;;;;2.04;100.00;103233.44;5054393;28;20037;-64
2022/01/28 05:38:16;;;;;;;14.17;3.23;;;;;;;2.05;100.00;103236.91;5107161;28;20114;-64
2022/01/28 05:40:41;;;;;;;18.43;4.00;;;;;;;2.04;100.00;103228.31;5110454;28;20031;-63
2022/01/28 05:43:07;;;;;;;10.97;3.70;;;;;;;2.05;100.00;103234.34;5111083;28;20031;-64
2022/01/28 05:45:32;;;;;;;14.93;4.00;;;;;;;2.01;100.00;103242.44;5110930;28;20034;-64
2022/01/28 05:47:58;;;;;;;10.73;3.30;;;;;;;1.96;100.00;103241.06;5110870;28;20030;-64
2022/01/28 05:50:23;;;;;;;12.27;3.57;;;;;;;1.91;100.00;103249.13;5110878;28;20039;-64
2022/01/28 05:52:49;;;;;;;15.43;3.33;;;;;;;1.87;100.00;103252.09;5110994;28;20056;-64
2022/01/28 05:55:14;;;;;;;15.23;3.60;;;;;;;1.79;100.00;103258.06;5110809;28;20024;-63
2022/01/28 05:57:40;;;;;;;12.77;3.43;;;;;;;1.73;100.00;103265.06;5110647;28;20059;-64
2022/01/28 06:00:06;;;;;;;16.07;3.83;;;;;;;1.66;100.00;103269.53;5110704;27;20446;-64
2022/01/28 06:02:31;;;;;;;9.13;3.13;;;;;;;1.63;100.00;103266.66;5110575;28;20034;-64
2022/01/28 06:04:56;;;;;;;10.57;3.47;;;;;;;1.57;100.00;103271.09;5104148;28;20058;-63
2022/01/28 06:07:21;;;;;;;12.30;3.30;;;;;;;1.51;100.00;103278.09;5109218;28;20157;-64
2022/01/28 06:09:47;;;;;;;10.33;4.10;;;;;;;1.46;100.00;103279.25;5110682;28;20066;-64
2022/01/28 06:12:12;;;;;;;16.80;3.93;;;;;;;1.40;100.00;103282.94;5104379;28;20383;-64
2022/01/28 06:14:37;;;;;;;9.43;3.37;;;;;;;1.35;100.00;103286.63;5110511;28;20023;-64
2022/01/28 06:17:03;;;;;;;16.70;3.47;;;;;;;1.31;100.00;103287.06;5110432;27;20505;-64
2022/01/28 06:19:28;;;;;;;9.83;3.73;;;;;;;1.26;100.00;103289.09;5106620;28;20538;-64
2022/01/28 06:21:54;;;;;;;6.43;3.60;;;;;;;1.24;100.00;103284.56;5108809;28;20080;-64
2022/01/28 06:24:19;;;;;;;8.73;3.27;;;;;;;1.18;100.00;103289.91;5110154;28;20031;-64
2022/01/28 06:26:45;;;;;;;10.30;3.10;;;;;;;1.14;100.00;103296.34;5110319;28;20027;-63
2022/01/28 06:29:12;;;;;;;12.67;3.17;;;;;;;1.10;100.00;103295.84;5110097;28;20753;-63
2022/01/28 06:31:38;;;;;;;13.20;3.40;;;;;;;1.06;100.00;103302.25;5110236;28;20281;-63
2022/01/28 06:34:03;;;;;;;11.90;3.97;;;;;;;1.05;100.00;103303.88;5124666;27;20429;-64
2022/01/28 06:36:28;;;;;;;14.23;4.10;;;;;;;1.01;100.00;103318.72;5130076;27;20128;-64
2022/01/28 06:38:54;;;;;;;18.57;4.23;;;;;;;0.99;100.00;103332.97;5123272;27;20027;-64
2022/01/28 06:41:19;;;;;;;10.47;4.63;;;;;;;0.95;100.00;103332.59;5117384;27;20062;-64
2022/01/28 06:43:44;;;;;;;11.07;3.87;;;;;;;0.93;100.00;103328.06;5130389;27;20470;-64
2022/01/28 06:46:10;;;;;;;13.63;4.13;;;;;;;0.92;100.00;103333.91;5130504;27;20158;-64
2022/01/28 06:48:35;;;;;;;15.90;4.10;;;;;;;0.86;100.00;103336.69;5130021;27;20026;-64
2022/01/28 06:51:00;;;;;;;13.77;3.80;;;;;;;0.82;100.00;103339.63;5123439;27;20459;-64
2022/01/28 06:53:26;;;;;;;12.17;4.10;;;;;;;0.77;100.00;103341.69;5129974;27;20027;-64
2022/01/28 06:55:51;;;;;;;13.40;4.13;;;;;;;0.71;100.00;103351.19;5130411;27;20035;-64
2022/01/28 06:58:16;;;;;;;11.27;4.10;;;;;;;0.68;100.00;103350.84;5116437;27;20037;-63
2022/01/28 07:00:42;;;;;;;13.30;3.87;;;;;;;0.61;100.00;103359.47;5116115;27;20023;-64
2022/01/28 07:03:10;;;;;;;12.67;3.90;;;;;;;0.59;100.00;103350.72;5129510;27;20027;-64
2022/01/28 07:05:36;;;;;;;13.50;3.70;;;;;;;0.53;100.00;103365.31;5127955;27;20034;-64
2022/01/28 07:08:01;;;;;;;10.07;4.70;;;;;;;0.49;100.00;103383.59;5120722;27;20011;-64
2022/01/28 07:10:28;;;;;;;13.00;3.93;;;;;;;0.42;100.00;103390.53;5122070;28;20031;-63
2022/01/28 07:12:54;;;;;;;11.40;4.07;;;;;;;0.41;100.00;103395.47;5126821;28;20486;-64
2022/01/28 07:15:24;;;;;;;12.43;4.07;;;;;;;0.35;100.00;103386.38;5127389;27;20026;-64
2022/01/28 07:17:51;;;;;;;13.17;4.90;;;;;;;0.31;100.00;103389.28;5129383;27;20023;-63
2022/01/28 07:20:17;;;;;;;16.00;5.37;;;;;;;0.29;100.00;103387.31;5116347;28;20039;-63
2022/01/28 07:22:43;;;;;;;16.40;5.47;;;;;;;0.23;100.00;103385.84;5114465;28;20053;-63
2022/01/28 07:25:08;;;;;;;11.87;4.80;;;;;;;0.22;100.00;103393.31;5107985;28;20031;-64
2022/01/28 07:27:34;;;;;;;14.83;5.33;;;;;;;0.19;100.00;103399.00;5126989;27;20220;-64
2022/01/28 07:29:59;;;;;;;19.13;6.67;;;;;;;0.19;100.00;103396.44;5108196;28;20035;-64
2022/01/28 07:32:25;;;;;;;14.10;5.73;;;;;;;0.22;100.00;103398.44;5132499;27;20037;-64
2022/01/28 07:34:50;;;;;;;18.97;7.13;;;;;;;0.21;100.00;103402.66;5133671;27;20485;-64
2022/01/28 07:37:15;;;;;;;15.10;4.87;;;;;;;0.21;100.00;103417.03;5098209;28;20035;-64
2022/01/28 07:39:41;;;;;;;17.87;4.90;;;;;;;0.23;100.00;103421.56;5122273;27;20058;-64
2022/01/28 07:42:06;;;;;;;15.53;5.20;;;;;;;0.26;100.00;103420.09;5110756;27;20035;-64
2022/01/28 07:44:32;;;;;;;13.77;5.13;;;;;;;0.28;100.00;103413.53;5103698;27;20035;-63
2022/01/28 07:46:57;;;;;;;11.03;4.57;;;;;;;0.29;100.00;103413.72;5133313;27;20023;-64
2022/01/28 07:49:22;;;;;;;12.67;4.97;;;;;;;0.28;100.00;103419.56;5133317;27;20364;-64
2022/01/28 07:51:48;;;;;;;15.47;5.17;;;;;;;0.31;100.00;103424.09;5133086;27;20566;-64
2022/01/28 07:54:14;;;;;;;12.70;4.53;;;;;;;0.34;100.00;103424.47;5127142;27;20027;-64
2022/01/28 07:56:39;;;;;;;12.60;4.70;;;;;;;0.39;100.00;103420.81;5127472;27;20490;-64
2022/01/28 07:59:05;;;;;;;13.90;4.87;;;;;;;0.43;100.00;103425.50;5116883;27;20023;-64
2022/01/28 08:01:31;;;;;;;9.03;4.20;;;;;;;0.43;100.00;103429.72;5133348;27;20023;-64
2022/01/28 08:03:56;;;;;;;10.13;3.97;;;;;;;0.42;100.00;103436.47;5133498;27;20120;-64
2022/01/28 08:06:21;;;;;;;11.17;4.13;;;;;;;0.43;100.00;103438.25;5133198;27;20492;-64
2022/01/28 08:08:47;;;;;;;15.37;5.10;;;;;;;0.45;100.00;103433.38;5128467;27;20038;-64
2022/01/28 08:11:13;;;;;;;26.10;10.50;;;;;;;0.46;100.00;103433.53;5112609;27;20066;-63
2022/01/28 08:13:38;;;;;;;26.40;13.63;;;;;;;0.50;100.00;103444.09;5114028;27;20542;-64
2022/01/28 08:16:04;;;;;;;15.20;8.33;;;;;;;0.53;100.00;103447.91;5132573;27;20080;-63
2022/01/28 08:18:29;;;;;;;19.03;5.50;;;;;;;0.56;100.00;103460.09;5114432;27;20039;-64
2022/01/28 08:20:54;;;;;;;15.60;6.20;;;;;;;0.59;100.00;103463.03;5118164;27;20031;-64
2022/01/28 08:23:20;;;;;;;15.30;6.50;;;;;;;0.63;100.00;103454.97;5114544;27;20492;-63
2022/01/28 08:25:48;;;;;;;14.93;6.20;;;;;;;0.67;100.00;103458.78;5107082;27;20039;-63
2022/01/28 08:28:14;;;;;;;13.40;5.70;;;;;;;0.72;100.00;103470.41;5110250;27;20019;-63
2022/01/28 08:30:40;;;;;;;16.17;5.83;;;;;;;0.79;100.00;103475.50;5111172;27;20076;-62
2022/01/28 08:33:06;;;;;;;15.40;5.50;;;;;;;0.87;100.00;103466.16;5111506;27;20047;-64
2022/01/28 08:35:36;;;;;;;15.43;6.20;;;;;;;0.93;100.00;103464.34;5113363;27;20045;-63
2022/01/28 08:38:02;;;;;;;14.73;5.50;;;;;;;1.00;100.00;103468.50;5127939;27;20395;-63
2022/01/28 08:40:29;;;;;;;15.10;5.10;;;;;;;1.14;100.00;103479.34;5118786;27;20199;-64
2022/01/28 08:42:55;;;;;;;16.83;5.57;;;;;;;1.55;100.00;103471.94;5121749;27;20612;-64
2022/01/28 08:45:21;;;;;;;12.93;4.37;;;;;;;2.01;100.00;103470.09;5110158;27;20027;-63
2022/01/28 08:47:47;;;;;;;11.70;4.27;;;;;;;2.26;100.00;103468.56;5109921;27;20032;-64
2022/01/28 08:50:12;;;;;;;12.70;4.30;;;;;;;2.39;100.00;103478.47;5131297;27;20543;-64
2022/01/28 08:52:38;;;;;;;10.00;5.10;;;;;;;2.57;100.00;103475.19;5132088;27;20611;-63
2022/01/28 08:55:04;;;;;;;12.17;3.93;;;;;;;2.76;100.00;103476.41;5132296;27;20023;-63
2022/01/28 08:57:30;;;;;;;13.83;4.70;;;;;;;3.00;100.00;103474.59;5131845;27;20534;-64
2022/01/28 08:59:55;;;;;;;14.60;4.37;;;;;;;3.24;100.00;103474.47;5113901;27;20047;-64
2022/01/28 09:02:20;;;;;;;15.00;4.50;;;;;;;3.52;100.00;103482.47;5132358;27;20047;-63
2022/01/28 09:04:46;;;;;;;12.23;3.97;;;;;;;3.79;100.00;103477.47;5132321;27;20080;-64
2022/01/28 09:07:12;;;;;;;12.27;3.60;;;;;;;4.03;100.00;103484.16;5132168;27;20015;-63
2022/01/28 09:09:47;;;;;;;12.27;4.10;;;;;;;4.19;100.00;103478.03;5115830;27;20077;-64
2022/01/28 09:14:46;;;;;;;11.00;4.33;;;;;;;4.11;100.00;103476.34;5125295;27;20228;-64
2022/01/28 09:17:12;;;;;;;13.10;4.30;;;;;;;4.02;100.00;103478.88;5132001;27;20027;-63
2022/01/28 09:19:37;;;;;;;11.43;4.20;;;;;;;3.89;100.00;103480.22;5124717;27;20549;-64
2022/01/28 09:22:03;;;;;;;10.03;4.17;;;;;;;3.81;100.00;103478.53;5120035;27;20150;-65
2022/01/28 09:24:28;;;;;;;16.00;4.13;;;;;;;3.71;100.00;103468.97;5115860;27;20051;-64
2022/01/28 09:26:54;;;;;;;11.20;4.53;;;;;;;3.62;100.00;103475.75;5111938;27;20483;-64
2022/01/28 09:29:22;;;;;;;14.17;5.10;;;;;;;3.57;100.00;103481.28;5111118;27;20028;-64
2022/01/28 09:31:47;;;;;;;11.63;4.20;;;;;;;3.53;100.00;103486.84;5115968;27;20377;-64
2022/01/28 09:34:12;;;;;;;14.47;5.60;;;;;;;3.54;100.00;103485.19;5108053;27;20112;-64
2022/01/28 09:36:39;;;;;;;15.17;4.97;;;;;;;3.55;100.00;103497.25;5106933;28;20088;-64
2022/01/28 09:39:06;;;;;;;18.20;5.73;;;;;;;3.56;100.00;103493.97;5110754;28;20087;-64
2022/01/28 09:41:32;;;;;;;15.47;5.40;;;;;;;3.59;100.00;103494.25;5108829;28;20044;-64
2022/01/28 09:44:00;;;;;;;15.80;5.60;;;;;;;3.60;100.00;103481.59;5091240;28;20040;-64
2022/01/28 09:46:25;;;;;;;12.80;5.53;;;;;;;3.64;100.00;103487.03;5100725;28;20038;-64
2022/01/28 09:48:51;;;;;;;14.37;5.80;;;;;;;3.64;100.00;103493.09;5105263;28;20468;-63
2022/01/28 09:51:16;;;;;;;12.90;5.77;;;;;;;3.65;100.00;103496.56;5103106;28;20529;-64
2022/01/28 09:53:41;;;;;;;15.80;5.63;;;;;;;3.66;100.00;103500.94;5103771;28;20415;-64
2022/01/28 09:56:07;;;;;;;15.67;6.00;;;;;;;3.68;100.00;103504.56;5078661;28;20456;-64
2022/01/28 09:58:32;;;;;;;16.00;5.37;;;;;;;3.71;100.00;103512.56;5100432;28;20036;-64
2022/01/28 10:00:58;;;;;;;14.67;5.53;;;;;;;3.75;100.00;103513.78;5084127;28;20034;-64
2022/01/28 10:03:25;;;;;;;18.50;7.27;;;;;;;3.79;100.00;103519.41;5101792;28;20036;-64
2022/01/28 10:05:51;;;;;;;19.80;6.70;;;;;;;3.82;100.00;103522.28;5103823;28;20031;-64
2022/01/28 10:08:17;;;;;;;15.20;5.57;;;;;;;3.87;100.00;103514.16;5103178;28;20015;-64
2022/01/28 10:10:59;;;;;;;15.40;5.80;;;;;;;3.91;100.00;103508.56;5098228;28;20078;-64
2022/01/28 10:16:22;;;;;;;15.63;5.77;;;;;;;4.04;100.00;103511.66;5099841;28;20042;-64
2022/01/28 10:18:49;;;;;;;15.70;5.60;;;;;;;4.13;100.00;103516.81;5110563;28;20159;-64
2022/01/28 10:21:15;;;;;;;18.63;6.40;;;;;;;4.23;100.00;103513.50;5102718;28;20026;-63
2022/01/28 10:23:41;;;;;;;14.43;5.97;;;;;;;4.30;100.00;103510.81;5105448;28;20019;-64
2022/01/28 10:26:06;;;;;;;16.37;5.43;;;;;;;4.39;100.00;103515.09;5105919;28;20024;-64
2022/01/28 10:28:33;;;;;;;18.37;6.70;;;;;;;4.47;100.00;103514.19;5097561;28;20022;-64
2022/01/28 10:31:03;;;;;;;17.00;5.37;;;;;;;4.55;100.00;103523.53;5089674;28;20107;-64
2022/01/28 10:33:29;;;;;;;15.63;4.97;;;;;;;4.64;100.00;103522.66;5106251;27;20447;-64
2022/01/28 10:35:56;;;;;;;18.47;5.37;;;;;;;4.69;100.00;103524.03;5130477;27;20101;-64
2022/01/28 10:38:33;;;;;;;16.63;5.57;;;;;;;4.73;100.00;103518.41;5130419;27;20055;-63
2022/01/28 10:41:13;;;;;;;11.63;5.63;;;;;;;4.78;100.00;103518.91;5123325;27;20475;-64
2022/01/28 10:43:46;;;;;;;16.63;5.13;;;;;;;4.82;100.00;103522.69;5098330;28;20114;-64
2022/01/28 10:46:19;;;;;;;11.53;5.00;;;;;;;4.84;100.00;103526.31;5126969;27;20027;-64
2022/01/28 10:48:49;;;;;;;12.63;5.57;;;;;;;4.86;100.00;103517.06;5112099;27;20072;-63
2022/01/28 10:51:19;;;;;;;12.17;4.70;;;;;;;4.88;100.00;103519.03;5109412;28;20030;-64
2022/01/28 10:54:21;;;;;;;16.17;4.90;;;;;;;4.91;100.00;103509.06;5112364;27;20272;-64
2022/01/28 10:56:48;;;;;;;22.97;6.43;;;;;;;4.97;100.00;103510.41;5117325;27;20328;-64
2022/01/28 10:59:18;;;;;;;15.90;5.35;;;;;;;5.00;100.00;103506.47;5117261;27;20530;-64
2022/01/28 11:01:45;;;;;;;12.27;4.88;;;;;;;5.04;100.00;103506.03;5090387;28;20024;-64
2022/01/28 11:04:12;;;;;;;13.68;5.00;;;;;;;5.09;100.00;103510.72;5111220;27;20046;-64
2022/01/28 11:06:39;;;;;;;12.13;5.10;;;;;;;5.16;100.00;103510.56;5123105;27;20110;-64
2022/01/28 11:09:06;;;;;;;15.55;4.68;;;;;;;5.18;100.00;103493.59;5129895;27;20012;-64
2022/01/28 11:11:32;;;;;;;20.38;4.18;;;;;;;5.22;100.00;103495.72;5115963;27;20066;-64
2022/01/28 11:13:58;;;;;;;14.10;4.28;;;;;;;5.28;100.00;103498.91;5111037;28;20051;-64
2022/01/28 11:16:26;;;;;;;12.63;4.77;;;;;;;5.33;100.00;103494.19;5118137;28;20120;-64
2022/01/28 11:18:52;;;;;;;9.90;4.15;;;;;;;5.38;100.00;103484.31;5125937;27;20023;-64
2022/01/28 11:21:20;;;;;;;15.55;4.95;;;;;;;5.41;100.00;103476.94;5123161;28;20054;-64
2022/01/28 11:24:23;;;;;;;14.45;4.38;;;;;;;5.47;100.00;103477.50;5117120;28;20494;-64
2022/01/28 11:27:03;;;;;;;12.40;4.35;;;;;;;5.54;100.00;103463.53;5025985;28;20030;-64
2022/01/28 11:29:28;;;;;;;14.35;4.30;;;;;;;5.62;100.00;103466.84;5026211;28;20144;-64
2022/01/28 11:31:56;;;;;;;15.70;4.43;;;;;;;5.70;100.00;103459.88;5024411;28;20112;-64
2022/01/28 11:34:30;;;;;;;15.13;4.82;;;;;;;5.79;100.00;103455.59;5008858;28;20142;-64
2022/01/28 11:37:26;;;;;;;11.85;4.05;;;;;;;5.89;100.00;103453.13;4997120;28;20038;-64
2022/01/28 11:39:52;;;;;;;13.93;4.18;;;;;;;5.98;100.00;103458.22;4987967;28;20357;-64
2022/01/28 11:42:22;;;;;;;16.02;4.05;;;;;;;6.09;100.00;103448.03;5003761;28;20105;-64
2022/01/28 11:44:51;;;;;;;16.33;4.18;;;;;;;6.20;100.00;103444.78;5005672;28;20509;-64
2022/01/28 11:47:35;;;;;;;14.43;3.63;;;;;;;6.30;100.00;103443.03;4997180;28;20031;-64
2022/01/28 11:50:11;;;;;;;10.48;2.97;;;;;;;6.42;100.00;103446.72;4995717;28;20037;-64
2022/01/28 11:52:43;;;;;;;10.93;2.97;;;;;;;6.58;100.00;103448.13;5006123;28;20040;-65
2022/01/28 11:55:15;;;;;;;11.88;2.80;;;;;;;6.74;100.00;103445.28;5006182;28;20137;-64
2022/01/28 11:57:49;;;;;;;10.75;2.97;;;;;;;6.81;100.00;103447.63;5005965;28;20453;-64
2022/01/28 12:00:19;;;;;;;11.95;3.10;;;;;;;6.93;100.00;103442.66;4993609;28;20041;-64
2022/01/28 12:02:50;;;;;;;11.25;2.90;;;;;;;7.10;99.63;103440.66;5027772;28;20399;-64
2022/01/28 12:05:30;;;;;;;11.35;2.80;;;;;;;7.30;98.95;103438.94;5090105;28;20051;-64
2022/01/28 12:07:59;;;;;;;12.35;3.90;;;;;;;7.44;97.85;103434.97;5090870;28;20039;-64
2022/01/28 12:10:27;;;;;;;9.43;2.95;;;;;;;7.63;96.43;103452.94;5088399;28;20024;-65
2022/01/28 12:12:58;;;;;;;11.82;3.00;;;;;;;7.80;93.62;103443.16;5087052;28;20413;-64
2022/01/28 12:15:27;;;;;;;9.10;2.65;;;;;;;7.98;92.66;103442.91;5092185;28;20047;-64
2022/01/28 12:18:09;;;;;;;8.77;2.60;;;;;;;8.16;90.76;103439.31;5088809;28;20110;-64
2022/01/28 12:20:57;;;;;;;9.77;2.95;;;;;;;8.41;91.21;103430.09;5108201;28;20111;-64
2022/01/28 12:23:25;;;;;;;9.48;2.33;;;;;;;8.56;90.42;103425.34;5092111;28;20103;-64
2022/01/28 12:25:55;;;;;;;9.40;3.25;;;;;;;8.59;88.89;103423.00;5107345;28;20112;-64
2022/01/28 12:28:32;;;;;;;11.73;3.53;;;;;;;8.37;86.76;103413.44;5102044;28;20016;-64
2022/01/28 12:31:07;;;;;;;11.27;3.03;;;;;;;8.00;86.53;103413.88;5105107;28;20024;-64
2022/01/28 12:33:39;;;;;;;12.55;2.85;;;;;;;7.61;86.62;103413.19;5111903;27;20044;-64
2022/01/28 12:36:21;;;;;;;9.55;2.55;;;;;;;7.44;87.92;103401.44;5115473;27;20031;-64
2022/01/28 12:39:08;;;;;;;9.68;2.33;;;;;;;7.27;91.17;103399.94;5112637;27;20020;-64
2022/01/28 12:41:43;;;;;;;10.90;2.80;;;;;;;7.16;91.37;103394.78;5114262;27;20026;-65
2022/01/28 12:44:14;;;;;;;10.73;2.55;;;;;;;7.23;90.51;103387.59;5111851;27;20024;-64
2022/01/28 12:46:39;;;;;;;6.30;2.20;;;;;;;7.37;93.41;103389.69;5127084;27;20463;-65
2022/01/28 12:49:08;;;;;;;9.02;2.70;;;;;;;7.53;92.26;103388.41;5125234;27;20072;-65
2022/01/28 12:51:37;;;;;;;12.88;3.67;;;;;;;7.63;89.06;103390.09;5126430;27;20027;-64
2022/01/28 12:54:03;;;;;;;9.95;2.30;;;;;;;7.69;88.28;103390.63;5113357;27;20023;-64
2022/01/28 12:56:40;;;;;;;11.30;3.00;;;;;;;7.66;88.89;103383.50;5109084;27;20502;-65